sensor_id;sensor_type;location;lat;lon;timestamp;P1;durP1;ratioP1;P2;durP2;ratioP2
73550;SDS011;61816;53.582;10.096;2023-02-28T00:02:16;14.25;;;5.22;;
73550;SDS011;61816;53.582;10.096;2023-02-28T00:04:42;19.27;;;5.38;;
73550;SDS011;61816;53.582;10.096;2023-02-28T00:07:08;11.48;;;4.97;;
73550;SDS011;61816;53.582;10.096;2023-02-28T00:09:33;12.27;;;4.35;;
73550;SDS011;61816;53.582;10.096;2023-02-28T00:11:59;12.57;;;5.03;;
73550;SDS011;61816;53.582;10.096;2023-02-28T00:14:24;17.50;;;5.03;;
73550;SDS011;61816;53.582;10.096;2023-02-28T00:16:49;10.82;;;4.53;;
73550;SDS011;61816;53.582;10.096;2023-02-28T00:19:15;16.08;;;4.68;;
73550;SDS011;61816;53.582;10.096;2023-02-28T00:21:40;21.17;;;5.35;;
73550;SDS011;61816;53.582;10.096;2023-02-28T00:24:06;12.93;;;4.80;;
73550;SDS011;61816;53.582;10.096;2023-02-28T00:26:31;11.68;;;4.97;;
73550;SDS011;61816;53.582;10.096;2023-02-28T00:28:57;16.75;;;5.55;;
73550;SDS011;61816;53.582;10.096;2023-02-28T00:31:23;17.40;;;4.60;;
73550;SDS011;61816;53.582;10.096;2023-02-28T00:33:48;9.65;;;4.88;;
73550;SDS011;61816;53.582;10.096;2023-02-28T00:36:14;19.20;;;5.40;;
73550;SDS011;61816;53.582;10.096;2023-02-28T00:38:39;19.80;;;5.15;;
73550;SDS011;61816;53.582;10.096;2023-02-28T00:41:05;15.70;;;4.50;;
73550;SDS011;61816;53.582;10.096;2023-02-28T00:43:33;13.55;;;5.93;;
73550;SDS011;61816;53.582;10.096;2023-02-28T00:46:00;10.88;;;5.13;;
73550;SDS011;61816;53.582;10.096;2023-02-28T00:48:25;11.55;;;4.78;;
73550;SDS011;61816;53.582;10.096;2023-02-28T00:50:51;8.93;;;4.40;;
73550;SDS011;61816;53.582;10.096;2023-02-28T00:53:16;17.75;;;5.03;;
73550;SDS011;61816;53.582;10.096;2023-02-28T00:55:42;10.77;;;4.85;;
73550;SDS011;61816;53.582;10.096;2023-02-28T00:58:07;15.02;;;5.40;;
73550;SDS011;61816;53.582;10.096;2023-02-28T01:00:32;13.57;;;5.30;;
73550;SDS011;61816;53.582;10.096;2023-02-28T01:02:58;17.52;;;5.60;;
73550;SDS011;61816;53.582;10.096;2023-02-28T01:05:23;13.30;;;5.07;;
73550;SDS011;61816;53.582;10.096;2023-02-28T01:07:48;14.80;;;5.13;;
73550;SDS011;61816;53.582;10.096;2023-02-28T01:10:14;16.75;;;5.40;;
73550;SDS011;61816;53.582;10.096;2023-02-28T01:12:39;17.40;;;5.38;;
73550;SDS011;61816;53.582;10.096;2023-02-28T01:15:04;18.52;;;6.25;;
73550;SDS011;61816;53.582;10.096;2023-02-28T01:17:30;18.30;;;5.68;;
73550;SDS011;61816;53.582;10.096;2023-02-28T01:19:56;22.88;;;6.43;;
73550;SDS011;61816;53.582;10.096;2023-02-28T01:22:21;25.83;;;6.50;;
73550;SDS011;61816;53.582;10.096;2023-02-28T01:24:47;14.32;;;5.70;;
73550;SDS011;61816;53.582;10.096;2023-02-28T01:27:13;17.95;;;6.22;;
73550;SDS011;61816;53.582;10.096;2023-02-28T01:29:38;19.75;;;5.35;;
73550;SDS011;61816;53.582;10.096;2023-02-28T01:32:04;20.58;;;6.03;;
73550;SDS011;61816;53.582;10.096;2023-02-28T01:34:29;15.63;;;6.13;;
73550;SDS011;61816;53.582;10.096;2023-02-28T01:36:54;20.17;;;6.68;;
73550;SDS011;61816;53.582;10.096;2023-02-28T01:47:08;16.48;;;6.75;;
73550;SDS011;61816;53.582;10.096;2023-02-28T02:06:04;16.48;;;7.10;;
73550;SDS011;61816;53.582;10.096;2023-02-28T02:09:14;16.00;;;6.20;;
73550;SDS011;61816;53.582;10.096;2023-02-28T02:11:40;15.45;;;6.32;;
73550;SDS011;61816;53.582;10.096;2023-02-28T02:17:07;15.93;;;5.70;;
73550;SDS011;61816;53.582;10.096;2023-02-28T02:20:09;17.05;;;5.50;;
73550;SDS011;61816;53.582;10.096;2023-02-28T02:23:20;17.77;;;6.13;;
73550;SDS011;61816;53.582;10.096;2023-02-28T02:39:51;27.73;;;7.80;;
73550;SDS011;61816;53.582;10.096;2023-02-28T02:42:29;17.60;;;6.00;;
73550;SDS011;61816;53.582;10.096;2023-02-28T02:45:09;17.77;;;6.32;;
73550;SDS011;61816;53.582;10.096;2023-02-28T02:47:39;14.77;;;5.50;;
73550;SDS011;61816;53.582;10.096;2023-02-28T02:50:07;20.58;;;6.22;;
73550;SDS011;61816;53.582;10.096;2023-02-28T02:52:38;11.38;;;5.45;;
73550;SDS011;61816;53.582;10.096;2023-02-28T02:55:07;18.98;;;6.22;;
73550;SDS011;61816;53.582;10.096;2023-02-28T02:57:38;20.13;;;6.07;;
73550;SDS011;61816;53.582;10.096;2023-02-28T03:00:11;15.25;;;6.47;;
73550;SDS011;61816;53.582;10.096;2023-02-28T03:02:37;22.53;;;7.10;;
73550;SDS011;61816;53.582;10.096;2023-02-28T03:05:14;16.00;;;5.63;;
73550;SDS011;61816;53.582;10.096;2023-02-28T03:07:46;15.50;;;6.37;;
73550;SDS011;61816;53.582;10.096;2023-02-28T03:10:28;17.17;;;6.10;;
73550;SDS011;61816;53.582;10.096;2023-02-28T03:13:02;21.73;;;7.00;;
73550;SDS011;61816;53.582;10.096;2023-02-28T03:18:36;14.83;;;6.00;;
73550;SDS011;61816;53.582;10.096;2023-02-28T03:21:12;21.23;;;6.10;;
73550;SDS011;61816;53.582;10.096;2023-02-28T03:24:31;11.77;;;6.30;;
73550;SDS011;61816;53.582;10.096;2023-02-28T03:26:43;16.83;;;7.47;;
73550;SDS011;61816;53.582;10.096;2023-02-28T03:29:23;16.57;;;6.57;;
73550;SDS011;61816;53.582;10.096;2023-02-28T03:32:04;16.73;;;6.20;;
73550;SDS011;61816;53.582;10.096;2023-02-28T03:34:41;22.27;;;6.40;;
73550;SDS011;61816;53.582;10.096;2023-02-28T03:37:18;18.80;;;7.03;;
73550;SDS011;61816;53.582;10.096;2023-02-28T03:39:47;18.87;;;6.67;;
73550;SDS011;61816;53.582;10.096;2023-02-28T03:42:22;18.63;;;6.33;;
73550;SDS011;61816;53.582;10.096;2023-02-28T03:44:56;17.25;;;7.00;;
73550;SDS011;61816;53.582;10.096;2023-02-28T03:47:27;20.23;;;7.03;;
73550;SDS011;61816;53.582;10.096;2023-02-28T03:49:58;18.95;;;6.95;;
73550;SDS011;61816;53.582;10.096;2023-02-28T03:52:27;25.03;;;7.10;;
73550;SDS011;61816;53.582;10.096;2023-02-28T03:54:59;17.75;;;6.65;;
73550;SDS011;61816;53.582;10.096;2023-02-28T04:00:08;19.97;;;6.73;;
73550;SDS011;61816;53.582;10.096;2023-02-28T04:02:41;19.07;;;7.17;;
73550;SDS011;61816;53.582;10.096;2023-02-28T04:05:06;15.13;;;6.83;;
73550;SDS011;61816;53.582;10.096;2023-02-28T04:07:32;22.47;;;6.80;;
73550;SDS011;61816;53.582;10.096;2023-02-28T04:09:58;19.83;;;6.97;;
73550;SDS011;61816;53.582;10.096;2023-02-28T04:12:24;21.23;;;7.40;;
73550;SDS011;61816;53.582;10.096;2023-02-28T04:14:50;18.57;;;7.07;;
73550;SDS011;61816;53.582;10.096;2023-02-28T04:17:16;21.37;;;7.63;;
73550;SDS011;61816;53.582;10.096;2023-02-28T04:19:41;19.30;;;7.40;;
73550;SDS011;61816;53.582;10.096;2023-02-28T04:22:07;20.70;;;7.80;;
73550;SDS011;61816;53.582;10.096;2023-02-28T04:24:34;18.60;;;7.07;;
73550;SDS011;61816;53.582;10.096;2023-02-28T04:26:59;23.17;;;8.00;;
73550;SDS011;61816;53.582;10.096;2023-02-28T04:29:29;27.20;;;6.83;;
73550;SDS011;61816;53.582;10.096;2023-02-28T04:34:25;19.23;;;6.60;;
73550;SDS011;61816;53.582;10.096;2023-02-28T04:36:52;18.93;;;7.03;;
73550;SDS011;61816;53.582;10.096;2023-02-28T04:39:19;17.53;;;6.90;;
73550;SDS011;61816;53.582;10.096;2023-02-28T04:41:46;22.30;;;7.43;;
73550;SDS011;61816;53.582;10.096;2023-02-28T04:44:12;28.87;;;7.83;;
73550;SDS011;61816;53.582;10.096;2023-02-28T04:46:38;20.97;;;8.00;;
73550;SDS011;61816;53.582;10.096;2023-02-28T04:49:03;15.13;;;6.50;;
73550;SDS011;61816;53.582;10.096;2023-02-28T04:51:28;22.73;;;7.47;;
73550;SDS011;61816;53.582;10.096;2023-02-28T04:53:54;22.33;;;7.93;;
73550;SDS011;61816;53.582;10.096;2023-02-28T04:56:19;19.47;;;7.00;;
73550;SDS011;61816;53.582;10.096;2023-02-28T04:58:45;23.13;;;7.70;;
73550;SDS011;61816;53.582;10.096;2023-02-28T05:01:22;24.00;;;8.30;;
73550;SDS011;61816;53.582;10.096;2023-02-28T05:03:55;20.53;;;7.13;;
73550;SDS011;61816;53.582;10.096;2023-02-28T05:06:22;19.73;;;7.17;;
73550;SDS011;61816;53.582;10.096;2023-02-28T05:08:49;24.83;;;7.57;;
73550;SDS011;61816;53.582;10.096;2023-02-28T05:13:46;20.43;;;8.10;;
73550;SDS011;61816;53.582;10.096;2023-02-28T05:16:12;17.00;;;7.30;;
73550;SDS011;61816;53.582;10.096;2023-02-28T05:18:37;28.80;;;8.00;;
73550;SDS011;61816;53.582;10.096;2023-02-28T05:21:03;18.40;;;7.90;;
73550;SDS011;61816;53.582;10.096;2023-02-28T05:23:29;22.93;;;8.57;;
73550;SDS011;61816;53.582;10.096;2023-02-28T05:25:54;21.03;;;8.30;;
73550;SDS011;61816;53.582;10.096;2023-02-28T05:28:20;18.80;;;8.40;;
73550;SDS011;61816;53.582;10.096;2023-02-28T05:30:46;27.80;;;8.57;;
73550;SDS011;61816;53.582;10.096;2023-02-28T05:33:12;25.67;;;8.40;;
73550;SDS011;61816;53.582;10.096;2023-02-28T05:35:38;18.23;;;7.80;;
73550;SDS011;61816;53.582;10.096;2023-02-28T05:38:04;24.53;;;8.50;;
73550;SDS011;61816;53.582;10.096;2023-02-28T05:40:30;22.43;;;8.73;;
73550;SDS011;61816;53.582;10.096;2023-02-28T05:42:55;28.47;;;8.93;;
73550;SDS011;61816;53.582;10.096;2023-02-28T05:45:20;19.23;;;8.20;;
73550;SDS011;61816;53.582;10.096;2023-02-28T05:47:46;21.40;;;7.70;;
73550;SDS011;61816;53.582;10.096;2023-02-28T05:50:11;21.47;;;8.33;;
73550;SDS011;61816;53.582;10.096;2023-02-28T05:52:37;19.23;;;8.20;;
73550;SDS011;61816;53.582;10.096;2023-02-28T05:55:02;27.23;;;8.90;;
73550;SDS011;61816;53.582;10.096;2023-02-28T05:57:29;27.57;;;9.73;;
73550;SDS011;61816;53.582;10.096;2023-02-28T05:59:54;21.50;;;8.90;;
73550;SDS011;61816;53.582;10.096;2023-02-28T06:02:20;22.33;;;8.37;;
73550;SDS011;61816;53.582;10.096;2023-02-28T06:04:45;21.77;;;8.43;;
73550;SDS011;61816;53.582;10.096;2023-02-28T06:07:11;24.20;;;8.70;;
73550;SDS011;61816;53.582;10.096;2023-02-28T06:09:37;23.43;;;9.50;;
73550;SDS011;61816;53.582;10.096;2023-02-28T06:12:03;31.20;;;8.83;;
73550;SDS011;61816;53.582;10.096;2023-02-28T06:14:35;29.93;;;8.57;;
73550;SDS011;61816;53.582;10.096;2023-02-28T06:17:01;28.20;;;9.00;;
73550;SDS011;61816;53.582;10.096;2023-02-28T06:19:27;19.20;;;9.73;;
73550;SDS011;61816;53.582;10.096;2023-02-28T06:21:55;22.17;;;8.30;;
73550;SDS011;61816;53.582;10.096;2023-02-28T06:24:22;22.50;;;8.63;;
73550;SDS011;61816;53.582;10.096;2023-02-28T06:26:48;28.43;;;9.57;;
73550;SDS011;61816;53.582;10.096;2023-02-28T06:29:14;22.07;;;8.13;;
73550;SDS011;61816;53.582;10.096;2023-02-28T06:31:46;29.57;;;8.77;;
73550;SDS011;61816;53.582;10.096;2023-02-28T06:34:14;20.63;;;8.85;;
73550;SDS011;61816;53.582;10.096;2023-02-28T06:36:41;28.87;;;9.30;;
73550;SDS011;61816;53.582;10.096;2023-02-28T06:39:07;32.87;;;9.97;;
73550;SDS011;61816;53.582;10.096;2023-02-28T06:41:33;25.43;;;9.87;;
73550;SDS011;61816;53.582;10.096;2023-02-28T06:44:12;20.07;;;8.97;;
73550;SDS011;61816;53.582;10.096;2023-02-28T06:46:42;25.47;;;9.13;;
73550;SDS011;61816;53.582;10.096;2023-02-28T06:49:09;25.17;;;9.20;;
73550;SDS011;61816;53.582;10.096;2023-02-28T06:51:40;23.67;;;9.17;;
73550;SDS011;61816;53.582;10.096;2023-02-28T06:54:10;26.77;;;9.57;;
73550;SDS011;61816;53.582;10.096;2023-02-28T06:56:36;25.23;;;8.00;;
73550;SDS011;61816;53.582;10.096;2023-02-28T06:59:04;31.77;;;9.73;;
73550;SDS011;61816;53.582;10.096;2023-02-28T07:01:30;22.60;;;8.80;;
73550;SDS011;61816;53.582;10.096;2023-02-28T07:03:59;20.53;;;8.23;;
73550;SDS011;61816;53.582;10.096;2023-02-28T07:06:25;27.40;;;10.03;;
73550;SDS011;61816;53.582;10.096;2023-02-28T07:08:52;22.23;;;9.27;;
73550;SDS011;61816;53.582;10.096;2023-02-28T07:11:18;26.67;;;9.17;;
73550;SDS011;61816;53.582;10.096;2023-02-28T07:13:45;23.87;;;9.60;;
73550;SDS011;61816;53.582;10.096;2023-02-28T07:16:12;26.93;;;8.90;;
73550;SDS011;61816;53.582;10.096;2023-02-28T07:18:38;19.83;;;8.20;;
73550;SDS011;61816;53.582;10.096;2023-02-28T07:21:04;25.40;;;8.47;;
73550;SDS011;61816;53.582;10.096;2023-02-28T07:23:32;20.20;;;8.53;;
73550;SDS011;61816;53.582;10.096;2023-02-28T07:25:57;32.80;;;8.87;;
73550;SDS011;61816;53.582;10.096;2023-02-28T07:28:23;17.07;;;8.90;;
73550;SDS011;61816;53.582;10.096;2023-02-28T07:30:49;21.00;;;8.97;;
73550;SDS011;61816;53.582;10.096;2023-02-28T07:33:15;20.87;;;8.43;;
73550;SDS011;61816;53.582;10.096;2023-02-28T07:35:40;32.47;;;8.77;;
73550;SDS011;61816;53.582;10.096;2023-02-28T07:38:06;20.97;;;7.40;;
73550;SDS011;61816;53.582;10.096;2023-02-28T07:40:33;19.73;;;8.27;;
73550;SDS011;61816;53.582;10.096;2023-02-28T07:42:59;28.00;;;8.57;;
73550;SDS011;61816;53.582;10.096;2023-02-28T07:45:26;20.23;;;7.37;;
73550;SDS011;61816;53.582;10.096;2023-02-28T07:47:51;24.80;;;7.80;;
73550;SDS011;61816;53.582;10.096;2023-02-28T07:50:17;18.27;;;7.17;;
73550;SDS011;61816;53.582;10.096;2023-02-28T07:52:42;20.00;;;7.40;;
73550;SDS011;61816;53.582;10.096;2023-02-28T07:55:08;22.20;;;7.53;;
73550;SDS011;61816;53.582;10.096;2023-02-28T07:57:35;27.13;;;8.83;;
73550;SDS011;61816;53.582;10.096;2023-02-28T08:00:01;22.33;;;8.37;;
73550;SDS011;61816;53.582;10.096;2023-02-28T08:02:28;26.10;;;8.40;;
73550;SDS011;61816;53.582;10.096;2023-02-28T08:04:53;19.10;;;7.77;;
73550;SDS011;61816;53.582;10.096;2023-02-28T08:07:19;24.43;;;7.43;;
73550;SDS011;61816;53.582;10.096;2023-02-28T08:09:44;24.20;;;8.10;;
73550;SDS011;61816;53.582;10.096;2023-02-28T08:12:10;28.27;;;8.60;;
73550;SDS011;61816;53.582;10.096;2023-02-28T08:14:36;31.52;;;8.40;;
73550;SDS011;61816;53.582;10.096;2023-02-28T08:17:02;18.97;;;6.70;;
73550;SDS011;61816;53.582;10.096;2023-02-28T08:19:29;26.90;;;8.03;;
73550;SDS011;61816;53.582;10.096;2023-02-28T08:21:55;24.15;;;7.45;;
73550;SDS011;61816;53.582;10.096;2023-02-28T08:24:20;27.33;;;7.00;;
73550;SDS011;61816;53.582;10.096;2023-02-28T08:26:46;22.35;;;7.53;;
73550;SDS011;61816;53.582;10.096;2023-02-28T08:29:11;26.13;;;6.85;;
73550;SDS011;61816;53.582;10.096;2023-02-28T08:31:37;20.00;;;6.68;;
73550;SDS011;61816;53.582;10.096;2023-02-28T08:34:06;22.08;;;7.30;;
73550;SDS011;61816;53.582;10.096;2023-02-28T08:36:35;14.65;;;6.20;;
73550;SDS011;61816;53.582;10.096;2023-02-28T08:39:01;27.60;;;7.22;;
73550;SDS011;61816;53.582;10.096;2023-02-28T08:41:27;15.55;;;6.78;;
73550;SDS011;61816;53.582;10.096;2023-02-28T08:43:52;24.45;;;7.60;;
73550;SDS011;61816;53.582;10.096;2023-02-28T08:46:18;16.35;;;6.57;;
73550;SDS011;61816;53.582;10.096;2023-02-28T08:48:46;25.83;;;7.63;;
73550;SDS011;61816;53.582;10.096;2023-02-28T08:51:15;31.80;;;9.15;;
73550;SDS011;61816;53.582;10.096;2023-02-28T08:53:44;14.30;;;6.80;;
73550;SDS011;61816;53.582;10.096;2023-02-28T08:56:11;22.70;;;6.90;;
73550;SDS011;61816;53.582;10.096;2023-02-28T08:58:38;25.88;;;6.93;;
73550;SDS011;61816;53.582;10.096;2023-02-28T09:01:17;35.85;;;7.07;;
73550;SDS011;61816;53.582;10.096;2023-02-28T09:03:45;23.23;;;6.28;;
73550;SDS011;61816;53.582;10.096;2023-02-28T09:06:12;16.35;;;6.50;;
73550;SDS011;61816;53.582;10.096;2023-02-28T09:08:39;28.13;;;6.43;;
73550;SDS011;61816;53.582;10.096;2023-02-28T09:11:05;16.75;;;6.18;;
73550;SDS011;61816;53.582;10.096;2023-02-28T09:13:31;24.42;;;7.20;;
73550;SDS011;61816;53.582;10.096;2023-02-28T09:16:01;20.67;;;5.80;;
73550;SDS011;61816;53.582;10.096;2023-02-28T09:18:28;18.50;;;6.07;;
73550;SDS011;61816;53.582;10.096;2023-02-28T09:20:54;22.88;;;6.38;;
73550;SDS011;61816;53.582;10.096;2023-02-28T09:23:19;17.33;;;5.65;;
73550;SDS011;61816;53.582;10.096;2023-02-28T09:25:49;13.98;;;4.97;;
73550;SDS011;61816;53.582;10.096;2023-02-28T09:28:17;16.45;;;5.40;;
73550;SDS011;61816;53.582;10.096;2023-02-28T09:30:47;14.00;;;5.63;;
73550;SDS011;61816;53.582;10.096;2023-02-28T09:33:15;11.52;;;4.47;;
73550;SDS011;61816;53.582;10.096;2023-02-28T09:35:41;18.85;;;5.22;;
73550;SDS011;61816;53.582;10.096;2023-02-28T09:38:08;10.55;;;3.47;;
73550;SDS011;61816;53.582;10.096;2023-02-28T09:40:38;15.90;;;5.28;;
73550;SDS011;61816;53.582;10.096;2023-02-28T09:43:14;14.23;;;4.40;;
73550;SDS011;61816;53.582;10.096;2023-02-28T09:45:40;18.80;;;4.90;;
73550;SDS011;61816;53.582;10.096;2023-02-28T09:48:14;17.50;;;5.05;;
73550;SDS011;61816;53.582;10.096;2023-02-28T09:50:47;11.63;;;4.30;;
73550;SDS011;61816;53.582;10.096;2023-02-28T09:53:29;16.95;;;4.50;;
73550;SDS011;61816;53.582;10.096;2023-02-28T09:56:10;20.02;;;4.55;;
73550;SDS011;61816;53.582;10.096;2023-02-28T09:58:47;10.23;;;3.53;;
73550;SDS011;61816;53.582;10.096;2023-02-28T10:01:20;13.95;;;4.68;;
73550;SDS011;61816;53.582;10.096;2023-02-28T10:03:55;11.60;;;4.45;;
73550;SDS011;61816;53.582;10.096;2023-02-28T10:09:04;14.55;;;4.22;;
73550;SDS011;61816;53.582;10.096;2023-02-28T10:11:38;16.45;;;4.43;;
73550;SDS011;61816;53.582;10.096;2023-02-28T10:14:06;10.75;;;4.00;;
73550;SDS011;61816;53.582;10.096;2023-02-28T10:27:26;6.00;;;2.90;;
73550;SDS011;61816;53.582;10.096;2023-02-28T10:29:55;9.07;;;3.28;;
73550;SDS011;61816;53.582;10.096;2023-02-28T10:32:24;10.32;;;3.40;;
73550;SDS011;61816;53.582;10.096;2023-02-28T10:34:55;13.75;;;3.30;;
73550;SDS011;61816;53.582;10.096;2023-02-28T10:37:24;7.75;;;2.88;;
73550;SDS011;61816;53.582;10.096;2023-02-28T10:39:49;6.07;;;2.67;;
73550;SDS011;61816;53.582;10.096;2023-02-28T10:44:47;10.45;;;3.00;;
73550;SDS011;61816;53.582;10.096;2023-02-28T10:47:17;6.07;;;2.67;;
73550;SDS011;61816;53.582;10.096;2023-02-28T10:49:46;7.32;;;2.90;;
73550;SDS011;61816;53.582;10.096;2023-02-28T10:52:13;10.93;;;2.70;;
73550;SDS011;61816;53.582;10.096;2023-02-28T10:55:16;10.63;;;2.95;;
73550;SDS011;61816;53.582;10.096;2023-02-28T10:57:47;6.75;;;2.40;;
73550;SDS011;61816;53.582;10.096;2023-02-28T11:00:14;8.32;;;2.83;;
73550;SDS011;61816;53.582;10.096;2023-02-28T11:02:45;10.60;;;2.97;;
73550;SDS011;61816;53.582;10.096;2023-02-28T11:07:56;6.25;;;2.83;;
73550;SDS011;61816;53.582;10.096;2023-02-28T11:10:25;11.65;;;3.65;;
73550;SDS011;61816;53.582;10.096;2023-02-28T11:12:54;7.80;;;3.08;;
73550;SDS011;61816;53.582;10.096;2023-02-28T11:20:52;6.15;;;2.90;;
73550;SDS011;61816;53.582;10.096;2023-02-28T11:23:21;9.32;;;2.67;;
73550;SDS011;61816;53.582;10.096;2023-02-28T11:25:52;12.82;;;3.00;;
73550;SDS011;61816;53.582;10.096;2023-02-28T11:28:32;5.88;;;2.63;;
73550;SDS011;61816;53.582;10.096;2023-02-28T11:31:00;5.47;;;2.60;;
73550;SDS011;61816;53.582;10.096;2023-02-28T11:33:47;12.88;;;3.55;;
73550;SDS011;61816;53.582;10.096;2023-02-28T11:36:19;12.75;;;2.83;;
73550;SDS011;61816;53.582;10.096;2023-02-28T11:38:55;6.20;;;2.67;;
73550;SDS011;61816;53.582;10.096;2023-02-28T11:44:34;9.52;;;3.08;;
73550;SDS011;61816;53.582;10.096;2023-02-28T11:50:08;7.70;;;2.60;;
73550;SDS011;61816;53.582;10.096;2023-02-28T11:52:52;9.05;;;3.17;;
73550;SDS011;61816;53.582;10.096;2023-02-28T11:55:37;8.63;;;2.65;;
73550;SDS011;61816;53.582;10.096;2023-02-28T12:06:18;11.98;;;3.30;;
73550;SDS011;61816;53.582;10.096;2023-02-28T12:08:56;6.15;;;2.35;;
73550;SDS011;61816;53.582;10.096;2023-02-28T12:11:32;8.55;;;2.78;;
73550;SDS011;61816;53.582;10.096;2023-02-28T12:19:58;7.45;;;2.65;;
73550;SDS011;61816;53.582;10.096;2023-02-28T12:22:32;9.98;;;2.83;;
73550;SDS011;61816;53.582;10.096;2023-02-28T12:25:34;19.42;;;4.10;;
73550;SDS011;61816;53.582;10.096;2023-02-28T12:28:10;10.00;;;2.78;;
73550;SDS011;61816;53.582;10.096;2023-02-28T12:31:14;5.82;;;2.75;;
73550;SDS011;61816;53.582;10.096;2023-02-28T12:33:35;7.65;;;2.63;;
73550;SDS011;61816;53.582;10.096;2023-02-28T12:36:07;10.37;;;3.23;;
73550;SDS011;61816;53.582;10.096;2023-02-28T12:38:44;7.70;;;2.40;;
73550;SDS011;61816;53.582;10.096;2023-02-28T12:41:18;10.50;;;2.90;;
73550;SDS011;61816;53.582;10.096;2023-02-28T12:43:49;11.55;;;3.35;;
73550;SDS011;61816;53.582;10.096;2023-02-28T12:46:22;9.90;;;2.80;;
73550;SDS011;61816;53.582;10.096;2023-02-28T12:48:56;4.45;;;2.70;;
73550;SDS011;61816;53.582;10.096;2023-02-28T12:51:22;8.57;;;2.80;;
73550;SDS011;61816;53.582;10.096;2023-02-28T12:58:45;9.35;;;2.95;;
73550;SDS011;61816;53.582;10.096;2023-02-28T13:01:32;10.85;;;2.72;;
73550;SDS011;61816;53.582;10.096;2023-02-28T13:04:27;9.10;;;2.65;;
73550;SDS011;61816;53.582;10.096;2023-02-28T13:12:32;12.30;;;2.58;;
73550;SDS011;61816;53.582;10.096;2023-02-28T13:15:01;11.18;;;2.50;;
73550;SDS011;61816;53.582;10.096;2023-02-28T13:17:36;7.07;;;2.22;;
73550;SDS011;61816;53.582;10.096;2023-02-28T13:20:04;5.47;;;2.20;;
73550;SDS011;61816;53.582;10.096;2023-02-28T13:22:40;4.60;;;2.60;;
73550;SDS011;61816;53.582;10.096;2023-02-28T13:27:48;7.65;;;2.42;;
73550;SDS011;61816;53.582;10.096;2023-02-28T13:36:01;6.32;;;2.55;;
73550;SDS011;61816;53.582;10.096;2023-02-28T13:38:32;5.53;;;2.20;;
73550;SDS011;61816;53.582;10.096;2023-02-28T13:43:59;8.65;;;2.60;;
73550;SDS011;61816;53.582;10.096;2023-02-28T13:46:29;5.13;;;2.05;;
73550;SDS011;61816;53.582;10.096;2023-02-28T13:48:54;5.43;;;1.92;;
73550;SDS011;61816;53.582;10.096;2023-02-28T13:54:16;7.10;;;2.60;;
73550;SDS011;61816;53.582;10.096;2023-02-28T13:56:50;14.57;;;3.03;;
73550;SDS011;61816;53.582;10.096;2023-02-28T13:59:36;6.78;;;2.45;;
73550;SDS011;61816;53.582;10.096;2023-02-28T14:02:34;9.45;;;3.17;;
73550;SDS011;61816;53.582;10.096;2023-02-28T14:07:49;7.32;;;2.67;;
73550;SDS011;61816;53.582;10.096;2023-02-28T14:11:02;4.82;;;2.25;;
73550;SDS011;61816;53.582;10.096;2023-02-28T14:16:09;5.28;;;2.20;;
73550;SDS011;61816;53.582;10.096;2023-02-28T14:18:40;9.77;;;2.17;;
73550;SDS011;61816;53.582;10.096;2023-02-28T14:21:11;5.40;;;2.25;;
73550;SDS011;61816;53.582;10.096;2023-02-28T14:26:32;4.70;;;2.47;;
73550;SDS011;61816;53.582;10.096;2023-02-28T14:29:24;4.55;;;2.00;;
73550;SDS011;61816;53.582;10.096;2023-02-28T14:32:15;7.47;;;2.22;;
73550;SDS011;61816;53.582;10.096;2023-02-28T14:37:42;4.18;;;2.00;;
73550;SDS011;61816;53.582;10.096;2023-02-28T14:40:12;11.35;;;2.28;;
73550;SDS011;61816;53.582;10.096;2023-02-28T14:42:45;7.10;;;2.80;;
73550;SDS011;61816;53.582;10.096;2023-02-28T14:45:17;8.40;;;1.95;;
73550;SDS011;61816;53.582;10.096;2023-02-28T14:47:44;6.23;;;2.37;;
73550;SDS011;61816;53.582;10.096;2023-02-28T14:50:20;5.93;;;2.20;;
73550;SDS011;61816;53.582;10.096;2023-02-28T14:52:47;3.67;;;1.95;;
73550;SDS011;61816;53.582;10.096;2023-02-28T14:55:17;10.90;;;2.70;;
73550;SDS011;61816;53.582;10.096;2023-02-28T14:57:52;7.30;;;2.40;;
73550;SDS011;61816;53.582;10.096;2023-02-28T15:02:50;9.80;;;2.75;;
73550;SDS011;61816;53.582;10.096;2023-02-28T15:05:31;5.88;;;2.28;;
73550;SDS011;61816;53.582;10.096;2023-02-28T15:08:16;7.93;;;2.80;;
73550;SDS011;61816;53.582;10.096;2023-02-28T15:10:43;19.88;;;2.28;;
73550;SDS011;61816;53.582;10.096;2023-02-28T15:13:12;4.15;;;2.15;;
73550;SDS011;61816;53.582;10.096;2023-02-28T15:15:45;5.55;;;2.55;;
73550;SDS011;61816;53.582;10.096;2023-02-28T15:21:13;12.48;;;3.00;;
73550;SDS011;61816;53.582;10.096;2023-02-28T15:23:45;4.57;;;2.22;;
73550;SDS011;61816;53.582;10.096;2023-02-28T15:26:15;5.50;;;2.47;;
73550;SDS011;61816;53.582;10.096;2023-02-28T15:28:42;4.93;;;2.38;;
73550;SDS011;61816;53.582;10.096;2023-02-28T15:31:23;4.78;;;2.60;;
73550;SDS011;61816;53.582;10.096;2023-02-28T15:33:53;5.60;;;2.17;;
73550;SDS011;61816;53.582;10.096;2023-02-28T15:36:28;8.68;;;2.45;;
73550;SDS011;61816;53.582;10.096;2023-02-28T15:38:56;7.78;;;2.40;;
73550;SDS011;61816;53.582;10.096;2023-02-28T15:44:38;5.70;;;2.22;;
73550;SDS011;61816;53.582;10.096;2023-02-28T15:47:03;4.03;;;1.85;;
73550;SDS011;61816;53.582;10.096;2023-02-28T15:49:39;4.22;;;2.03;;
73550;SDS011;61816;53.582;10.096;2023-02-28T15:52:12;8.77;;;2.53;;
73550;SDS011;61816;53.582;10.096;2023-02-28T15:54:41;3.60;;;2.08;;
73550;SDS011;61816;53.582;10.096;2023-02-28T15:57:10;4.53;;;2.47;;
73550;SDS011;61816;53.582;10.096;2023-02-28T15:59:42;6.63;;;2.40;;
73550;SDS011;61816;53.582;10.096;2023-02-28T16:02:17;4.57;;;2.33;;
73550;SDS011;61816;53.582;10.096;2023-02-28T16:05:16;6.90;;;2.88;;
73550;SDS011;61816;53.582;10.096;2023-02-28T16:07:46;11.15;;;2.92;;
73550;SDS011;61816;53.582;10.096;2023-02-28T16:10:14;6.32;;;2.20;;
73550;SDS011;61816;53.582;10.096;2023-02-28T16:12:39;5.63;;;2.10;;
73550;SDS011;61816;53.582;10.096;2023-02-28T16:15:17;5.57;;;2.40;;
73550;SDS011;61816;53.582;10.096;2023-02-28T16:17:45;4.75;;;2.33;;
73550;SDS011;61816;53.582;10.096;2023-02-28T16:20:12;6.47;;;2.40;;
73550;SDS011;61816;53.582;10.096;2023-02-28T16:22:39;6.40;;;2.67;;
73550;SDS011;61816;53.582;10.096;2023-02-28T16:25:08;9.52;;;3.28;;
73550;SDS011;61816;53.582;10.096;2023-02-28T16:27:37;7.20;;;1.95;;
73550;SDS011;61816;53.582;10.096;2023-02-28T16:30:03;3.55;;;1.85;;
73550;SDS011;61816;53.582;10.096;2023-02-28T16:32:30;7.95;;;2.40;;
73550;SDS011;61816;53.582;10.096;2023-02-28T16:34:58;4.97;;;2.45;;
73550;SDS011;61816;53.582;10.096;2023-02-28T16:37:24;6.80;;;2.35;;
73550;SDS011;61816;53.582;10.096;2023-02-28T16:39:49;4.93;;;2.30;;
73550;SDS011;61816;53.582;10.096;2023-02-28T16:42:20;9.73;;;2.65;;
73550;SDS011;61816;53.582;10.096;2023-02-28T16:44:50;7.93;;;2.72;;
73550;SDS011;61816;53.582;10.096;2023-02-28T16:47:16;11.77;;;3.00;;
73550;SDS011;61816;53.582;10.096;2023-02-28T16:49:41;7.07;;;2.67;;
73550;SDS011;61816;53.582;10.096;2023-02-28T16:52:11;10.07;;;2.67;;
73550;SDS011;61816;53.582;10.096;2023-02-28T16:54:39;9.25;;;2.53;;
73550;SDS011;61816;53.582;10.096;2023-02-28T16:57:06;9.27;;;2.75;;
73550;SDS011;61816;53.582;10.096;2023-02-28T16:59:38;12.25;;;3.10;;
73550;SDS011;61816;53.582;10.096;2023-02-28T17:02:08;7.88;;;2.60;;
73550;SDS011;61816;53.582;10.096;2023-02-28T17:04:37;12.30;;;2.40;;